createdAt,value
2018-11-23T00:00:29.203Z,99.90
2018-11-23T00:05:33.319Z,99.90
2018-11-23T00:10:37.016Z,99.90
2018-11-23T00:15:40.939Z,99.90
2018-11-23T00:20:44.518Z,99.90
2018-11-23T00:25:48.266Z,99.90
2018-11-23T00:30:51.814Z,99.90
2018-11-23T00:35:55.328Z,99.90
2018-11-23T00:40:58.875Z,99.90
2018-11-23T00:46:03.413Z,99.90
2018-11-23T00:51:07.388Z,99.90
2018-11-23T00:56:11.160Z,99.90
2018-11-23T01:01:15.022Z,99.90
2018-11-23T01:06:19.178Z,99.90
2018-11-23T01:11:22.779Z,99.90
2018-11-23T01:16:26.344Z,99.90
2018-11-23T01:21:29.997Z,99.90
2018-11-23T01:26:33.579Z,99.90
2018-11-23T01:31:37.358Z,99.90
2018-11-23T01:36:41.477Z,99.90
2018-11-23T01:41:45.400Z,99.90
2018-11-23T01:46:49.283Z,99.90
2018-11-23T01:51:53.252Z,99.90
2018-11-23T01:56:56.760Z,99.90
2018-11-23T02:02:00.620Z,99.90
2018-11-23T02:07:04.521Z,99.90
2018-11-23T02:12:08.899Z,99.90
2018-11-23T02:17:12.627Z,99.90
2018-11-23T02:22:16.727Z,99.90
2018-11-23T02:27:20.604Z,99.90
2018-11-23T02:32:24.350Z,99.90
2018-11-23T02:37:27.967Z,99.90
2018-11-23T02:42:31.818Z,99.90
2018-11-23T02:47:35.341Z,99.90
2018-11-23T02:52:39.828Z,99.90
2018-11-23T02:57:43.709Z,99.90
2018-11-23T03:02:47.591Z,99.90
2018-11-23T03:07:51.788Z,99.90
2018-11-23T03:12:55.510Z,99.90
2018-11-23T03:17:59.100Z,99.90
2018-11-23T03:23:04.305Z,99.90
2018-11-23T03:28:08.106Z,99.90
2018-11-23T03:33:12.713Z,99.90
2018-11-23T03:38:16.245Z,99.90
2018-11-23T03:43:19.914Z,99.90
2018-11-23T03:48:23.487Z,99.90
2018-11-23T03:53:27.017Z,99.90
2018-11-23T03:58:30.647Z,99.90
2018-11-23T04:03:34.709Z,99.90
2018-11-23T04:08:38.442Z,99.90
2018-11-23T04:13:42.030Z,99.90
2018-11-23T04:18:46.036Z,99.90
2018-11-23T04:23:49.667Z,99.90
2018-11-23T04:28:53.472Z,99.90
2018-11-23T04:33:56.993Z,99.90
2018-11-23T04:39:00.513Z,99.90
2018-11-23T04:44:05.578Z,99.90
2018-11-23T04:49:09.838Z,99.90
2018-11-23T04:54:13.737Z,99.90
2018-11-23T04:59:17.311Z,99.90
2018-11-23T05:04:20.867Z,99.90
2018-11-23T05:09:24.424Z,99.90
2018-11-23T05:14:27.939Z,99.90
2018-11-23T05:19:31.442Z,99.90
2018-11-23T05:24:35.838Z,99.90
2018-11-23T05:29:39.609Z,99.90
2018-11-23T05:34:43.523Z,99.90
2018-11-23T05:39:47.594Z,99.90
2018-11-23T05:44:51.361Z,99.90
2018-11-23T05:49:54.928Z,99.90
2018-11-23T05:54:58.441Z,99.90
2018-11-23T06:00:02.589Z,99.90
2018-11-23T06:05:07.542Z,99.90
2018-11-23T06:10:15.534Z,99.90
2018-11-23T06:15:21.310Z,99.90
2018-11-23T06:20:26.491Z,99.90
2018-11-23T06:25:34.219Z,99.90
2018-11-23T06:30:37.879Z,99.90
2018-11-23T06:35:41.426Z,99.90
2018-11-23T06:40:44.976Z,99.90
2018-11-23T06:45:48.635Z,99.90
2018-11-23T06:50:52.325Z,99.90
2018-11-23T06:55:56.777Z,99.90
2018-11-23T07:01:01.456Z,99.90
2018-11-23T07:06:05.770Z,99.90
2018-11-23T07:11:09.504Z,99.90
2018-11-23T07:16:13.154Z,99.90
2018-11-23T07:21:21.390Z,99.90
2018-11-23T07:26:20.215Z,99.90
2018-11-23T07:31:23.912Z,99.90
2018-11-23T07:36:27.617Z,99.90
2018-11-23T07:41:42.542Z,99.90
2018-11-23T07:46:46.899Z,99.90
2018-11-23T07:51:50.899Z,99.90
2018-11-23T07:56:54.382Z,99.90
2018-11-23T08:01:57.914Z,99.90
2018-11-23T08:07:01.837Z,99.90
2018-11-23T08:12:05.970Z,99.90
2018-11-23T08:17:10.280Z,99.90
2018-11-23T08:22:14.805Z,99.90
2018-11-23T08:27:18.620Z,99.90
2018-11-23T08:32:22.159Z,99.90
2018-11-23T08:37:25.668Z,99.90
2018-11-23T08:42:29.185Z,99.90
2018-11-23T08:47:32.733Z,99.90
2018-11-23T08:52:36.578Z,99.90
2018-11-23T08:57:40.639Z,99.90
2018-11-23T09:02:45.638Z,99.90
2018-11-23T09:07:50.793Z,99.90
2018-11-23T09:12:57.465Z,99.90
2018-11-23T09:18:01.497Z,99.90
2018-11-23T09:23:05.191Z,99.90
2018-11-23T09:28:08.715Z,99.90
2018-11-23T09:33:12.287Z,99.90
2018-11-23T09:38:15.913Z,99.90
2018-11-23T09:43:19.448Z,99.90
2018-11-23T09:48:23.271Z,99.90
2018-11-23T09:53:27.095Z,99.90
2018-11-23T09:58:31.019Z,99.90
2018-11-23T10:03:34.713Z,99.90
2018-11-23T10:08:38.447Z,99.90
2018-11-23T10:13:42.427Z,99.90
2018-11-23T10:18:46.011Z,99.90
2018-11-23T10:23:49.584Z,99.90
2018-11-23T10:28:53.198Z,99.90
2018-11-23T10:33:56.695Z,99.90
2018-11-23T10:39:00.232Z,99.90
2018-11-23T10:44:04.141Z,99.90
2018-11-23T10:49:09.266Z,99.90
2018-11-23T10:54:13.112Z,99.90
2018-11-23T10:59:16.656Z,99.90
2018-11-23T11:04:25.436Z,99.90
2018-11-23T11:09:29.069Z,99.90
2018-11-23T11:14:32.733Z,99.90
2018-11-23T11:19:36.516Z,99.90
2018-11-23T11:24:40.004Z,99.90
2018-11-23T11:29:43.506Z,99.90
2018-11-23T11:34:47.350Z,99.90
2018-11-23T11:39:51.053Z,97.50
2018-11-23T11:44:54.773Z,97.40
2018-11-23T11:49:59.205Z,96.60
2018-11-23T11:55:02.734Z,96.50
2018-11-23T12:00:09.104Z,96.10
2018-11-23T12:05:13.334Z,95.80
2018-11-23T12:10:20.196Z,96.10
2018-11-23T12:15:24.328Z,96.30
2018-11-23T12:20:28.175Z,95.10
2018-11-23T12:25:32.095Z,94.90
2018-11-23T12:30:37.117Z,94.70
2018-11-23T12:35:40.825Z,94.70
2018-11-23T12:40:44.600Z,94.90
2018-11-23T12:45:48.256Z,95.10
2018-11-23T12:50:52.842Z,95.70
2018-11-23T12:55:58.134Z,96.20
2018-11-23T13:01:01.983Z,97.10
2018-11-23T13:06:05.989Z,96.40
2018-11-23T13:11:10.765Z,95.90
2018-11-23T13:16:14.995Z,96.30
2018-11-23T13:21:18.856Z,96.80
2018-11-23T13:26:23.230Z,96.70
2018-11-23T13:31:27.015Z,96.50
2018-11-23T13:36:33.657Z,97.70
2018-11-23T13:41:38.669Z,98.60
2018-11-23T13:46:43.835Z,99.00
2018-11-23T13:51:47.710Z,99.90
2018-11-23T13:56:51.820Z,99.70
2018-11-23T14:01:56.073Z,99.90
2018-11-23T14:07:00.020Z,99.90
2018-11-23T14:12:03.676Z,99.90
2018-11-23T14:17:07.564Z,99.90
2018-11-23T14:22:11.269Z,99.90
2018-11-23T14:27:17.061Z,99.90
2018-11-23T14:32:20.915Z,99.90
2018-11-23T14:37:25.272Z,99.90
2018-11-23T14:42:28.805Z,99.90
2018-11-23T14:47:33.137Z,99.90
2018-11-23T14:52:36.246Z,99.90
2018-11-23T14:57:41.257Z,99.90
2018-11-23T15:02:49.623Z,99.90
2018-11-23T15:07:55.584Z,99.90
2018-11-23T15:13:00.551Z,99.90
2018-11-23T15:18:04.557Z,99.90
2018-11-23T15:23:12.921Z,99.90
2018-11-23T15:28:17.267Z,99.90
2018-11-23T15:33:20.855Z,99.90
2018-11-23T15:38:25.594Z,99.90
2018-11-23T15:43:29.707Z,99.90
2018-11-23T15:48:33.325Z,99.90
2018-11-23T15:53:37.038Z,99.90
2018-11-23T15:58:40.760Z,99.90
2018-11-23T16:03:44.363Z,99.90
2018-11-23T16:08:48.504Z,99.90
2018-11-23T16:13:52.203Z,99.90
2018-11-23T16:18:57.074Z,99.90
2018-11-23T16:24:00.845Z,99.90
2018-11-23T16:29:04.728Z,99.90
2018-11-23T16:34:08.389Z,99.90
2018-11-23T16:39:13.396Z,99.90
2018-11-23T16:44:17.740Z,99.90
2018-11-23T16:49:22.463Z,99.90
2018-11-23T16:54:26.156Z,99.90
2018-11-23T16:59:30.045Z,99.90
2018-11-23T17:04:33.693Z,99.90
2018-11-23T17:09:38.135Z,99.90
2018-11-23T17:14:42.125Z,99.90
2018-11-23T17:19:46.511Z,99.90
2018-11-23T17:24:50.440Z,99.90
2018-11-23T17:29:54.038Z,99.90
2018-11-23T17:34:57.702Z,99.90
2018-11-23T17:40:01.972Z,99.90
2018-11-23T17:45:09.968Z,99.90
2018-11-23T17:50:15.945Z,99.90
2018-11-23T17:55:19.762Z,99.90
2018-11-23T18:00:27.657Z,99.90
2018-11-23T18:05:32.624Z,99.90
2018-11-23T18:10:36.197Z,99.90
2018-11-23T18:15:39.812Z,99.90
2018-11-23T18:20:43.430Z,99.90
2018-11-23T18:25:47.029Z,99.90
2018-11-23T18:30:50.632Z,99.90
2018-11-23T18:35:54.408Z,99.90
2018-11-23T18:40:58.114Z,99.90
2018-11-23T18:46:01.855Z,99.90
2018-11-23T18:51:05.521Z,99.90
2018-11-23T18:56:09.390Z,99.90
2018-11-23T19:01:13.497Z,99.90
2018-11-23T19:06:17.207Z,99.90
2018-11-23T19:11:21.124Z,99.90
2018-11-23T19:16:24.733Z,99.90
2018-11-23T19:21:28.533Z,99.90
2018-11-23T19:26:32.287Z,99.90
2018-11-23T19:31:36.029Z,99.90
2018-11-23T19:36:40.012Z,99.90
2018-11-23T19:41:44.257Z,99.90
2018-11-23T19:46:47.811Z,99.90
2018-11-23T19:51:52.121Z,99.90
2018-11-23T19:56:55.868Z,99.90
2018-11-23T20:01:59.659Z,99.90
2018-11-23T20:07:03.449Z,99.90
2018-11-23T20:12:07.519Z,99.90
2018-11-23T20:17:11.485Z,99.90
2018-11-23T20:22:15.218Z,99.90
2018-11-23T20:27:18.882Z,99.90
2018-11-23T20:39:57.249Z,99.90
2018-11-23T20:45:00.832Z,99.90
2018-11-23T20:50:05.708Z,99.90
2018-11-23T20:55:13.011Z,99.90
2018-11-23T21:00:20.891Z,99.90
2018-11-23T21:05:24.905Z,99.90
2018-11-23T21:10:28.425Z,99.90
2018-11-23T21:15:32.351Z,99.90
2018-11-23T21:20:36.882Z,99.90
2018-11-23T21:25:40.576Z,99.90
2018-11-23T21:30:44.814Z,99.90
2018-11-23T21:35:49.218Z,99.90
2018-11-23T21:40:52.796Z,99.90
2018-11-23T21:45:57.280Z,99.90
2018-11-23T21:51:01.635Z,99.90
2018-11-23T21:56:09.494Z,99.90
2018-11-23T22:01:10.545Z,99.90
2018-11-23T22:06:14.110Z,99.90
2018-11-23T22:11:17.870Z,99.90
2018-11-23T22:16:21.986Z,99.90
2018-11-23T22:21:25.748Z,99.90
2018-11-23T22:26:30.248Z,99.90
2018-11-23T22:31:34.309Z,99.90
2018-11-23T22:36:38.303Z,99.90
2018-11-23T22:41:42.215Z,99.90
2018-11-23T22:46:45.915Z,99.90
2018-11-23T22:51:49.730Z,99.90
2018-11-23T22:56:53.229Z,99.90
2018-11-23T23:01:57.479Z,99.90
2018-11-23T23:07:03.217Z,99.90
2018-11-23T23:12:07.822Z,99.90
2018-11-23T23:17:11.288Z,99.90
2018-11-23T23:22:14.790Z,99.90
2018-11-23T23:27:18.277Z,99.90
2018-11-23T23:32:21.764Z,99.90
2018-11-23T23:37:26.548Z,99.90
2018-11-23T23:42:30.070Z,99.90
2018-11-23T23:47:33.855Z,99.90
2018-11-23T23:52:37.862Z,99.90
2018-11-23T23:57:42.473Z,99.90
